Portada
METAR-TAF:

METAR-TAF

Aeroports :

Aeroport Intercontinental George Bush

Houston, Texas, Estats Units d'Amèrica

latitud: 29-59-33N, longitud: 095-21-50W, altitud: 29 m

Observació

L'informe es va fer fa 12 minuts, a les 01:53 UTC
Vent calma
Temperatura 8°C
Humitat 87%
Pressió 1026 hPa
Visibilitat: 16.1 km
Cel clar

METAR: KIAH 160153Z 00000KT 10SM CLR 08/06 A3030 RMK AO2 SLP260 T00830056

Hora: 20:05 (02:05 UTC)

Pronòstic

L'informe es va fer fa 2 hores i 43 minuts, a les 23:22 UTC
Pronòstic vàlid del 16 a les 00 UTC al 17 a les 06 UTC
Vent 4 kt amb direcció variable
Visibilitat: 10 km
Cel clar

TAF: KIAH 152322Z 1600/1706 VRB04KT P6SM SKC

Observacions i pronòstics meteorològics de més de 4000 aeroports (METAR i TAF).

Les estacions disponibles són els punts grocs i vermells al mapa.

Posi el ratolí al punt desitjat per veure el nom de l'estació.

Feu clic per veure les observacions i els pronòstics meteorològics.

Per canviar el mapa: feu clic els botons verds amb una creu de color negre per apropar; al botó verd amb un guió per allunyar la imatge; o en les fletxes verdes per a mapes adjacents.


METAR-TAF: